sensor_id;sensor_type;location;lat;lon;timestamp;P1;durP1;ratioP1;P2;durP2;ratioP2
20124;SDS011;10223;50.862;4.360;2023-08-31T00:01:00;2.80;;;1.97;;
20124;SDS011;10223;50.862;4.360;2023-08-31T00:03:30;4.90;;;2.30;;
20124;SDS011;10223;50.862;4.360;2023-08-31T00:05:57;3.10;;;1.87;;
20124;SDS011;10223;50.862;4.360;2023-08-31T00:08:24;5.20;;;2.40;;
20124;SDS011;10223;50.862;4.360;2023-08-31T00:10:56;9.30;;;2.30;;
20124;SDS011;10223;50.862;4.360;2023-08-31T00:13:24;5.43;;;2.40;;
20124;SDS011;10223;50.862;4.360;2023-08-31T00:15:53;5.17;;;2.50;;
20124;SDS011;10223;50.862;4.360;2023-08-31T00:18:21;5.43;;;2.67;;
20124;SDS011;10223;50.862;4.360;2023-08-31T00:20:49;4.67;;;2.80;;
20124;SDS011;10223;50.862;4.360;2023-08-31T00:23:16;4.93;;;2.80;;
20124;SDS011;10223;50.862;4.360;2023-08-31T00:25:44;7.87;;;3.03;;
20124;SDS011;10223;50.862;4.360;2023-08-31T00:28:10;5.83;;;3.20;;
20124;SDS011;10223;50.862;4.360;2023-08-31T00:30:40;4.43;;;3.20;;
20124;SDS011;10223;50.862;4.360;2023-08-31T00:33:09;8.23;;;3.37;;
20124;SDS011;10223;50.862;4.360;2023-08-31T00:35:36;6.17;;;3.53;;
20124;SDS011;10223;50.862;4.360;2023-08-31T00:38:08;9.67;;;3.87;;
20124;SDS011;10223;50.862;4.360;2023-08-31T00:40:38;6.73;;;3.63;;
20124;SDS011;10223;50.862;4.360;2023-08-31T00:43:07;6.37;;;3.17;;
20124;SDS011;10223;50.862;4.360;2023-08-31T00:45:34;6.50;;;3.47;;
20124;SDS011;10223;50.862;4.360;2023-08-31T00:48:01;6.93;;;3.03;;
20124;SDS011;10223;50.862;4.360;2023-08-31T00:50:29;4.90;;;3.03;;
20124;SDS011;10223;50.862;4.360;2023-08-31T00:52:56;4.60;;;3.23;;
20124;SDS011;10223;50.862;4.360;2023-08-31T00:55:24;8.20;;;3.23;;
20124;SDS011;10223;50.862;4.360;2023-08-31T00:57:51;9.80;;;3.47;;
20124;SDS011;10223;50.862;4.360;2023-08-31T01:00:18;6.37;;;3.00;;
20124;SDS011;10223;50.862;4.360;2023-08-31T01:02:48;5.47;;;2.90;;
20124;SDS011;10223;50.862;4.360;2023-08-31T01:05:25;6.97;;;2.70;;
20124;SDS011;10223;50.862;4.360;2023-08-31T01:08:03;4.03;;;2.73;;
20124;SDS011;10223;50.862;4.360;2023-08-31T01:10:43;5.53;;;3.17;;
20124;SDS011;10223;50.862;4.360;2023-08-31T01:13:14;7.40;;;3.37;;
20124;SDS011;10223;50.862;4.360;2023-08-31T01:15:49;6.57;;;2.80;;
20124;SDS011;10223;50.862;4.360;2023-08-31T01:18:20;9.47;;;3.73;;
20124;SDS011;10223;50.862;4.360;2023-08-31T01:20:50;6.37;;;3.43;;
20124;SDS011;10223;50.862;4.360;2023-08-31T01:23:25;6.70;;;3.33;;
20124;SDS011;10223;50.862;4.360;2023-08-31T01:26:01;5.80;;;3.43;;
20124;SDS011;10223;50.862;4.360;2023-08-31T01:28:28;8.17;;;3.40;;
20124;SDS011;10223;50.862;4.360;2023-08-31T01:30:56;4.90;;;2.97;;
20124;SDS011;10223;50.862;4.360;2023-08-31T01:33:23;9.47;;;3.63;;
20124;SDS011;10223;50.862;4.360;2023-08-31T01:35:50;6.63;;;3.47;;
20124;SDS011;10223;50.862;4.360;2023-08-31T01:38:21;6.03;;;3.43;;
20124;SDS011;10223;50.862;4.360;2023-08-31T01:40:54;4.77;;;3.33;;
20124;SDS011;10223;50.862;4.360;2023-08-31T01:43:27;8.67;;;3.77;;
20124;SDS011;10223;50.862;4.360;2023-08-31T01:45:54;5.50;;;3.60;;
20124;SDS011;10223;50.862;4.360;2023-08-31T01:48:23;7.33;;;3.57;;
20124;SDS011;10223;50.862;4.360;2023-08-31T01:50:50;7.87;;;3.00;;
20124;SDS011;10223;50.862;4.360;2023-08-31T01:53:17;8.30;;;3.70;;
20124;SDS011;10223;50.862;4.360;2023-08-31T01:55:45;8.60;;;3.30;;
20124;SDS011;10223;50.862;4.360;2023-08-31T01:58:12;5.73;;;3.43;;
20124;SDS011;10223;50.862;4.360;2023-08-31T02:00:40;7.53;;;3.63;;
20124;SDS011;10223;50.862;4.360;2023-08-31T02:03:07;5.63;;;3.30;;
20124;SDS011;10223;50.862;4.360;2023-08-31T02:05:35;4.43;;;3.20;;
20124;SDS011;10223;50.862;4.360;2023-08-31T02:08:01;7.47;;;4.33;;
20124;SDS011;10223;50.862;4.360;2023-08-31T02:10:28;8.90;;;3.83;;
20124;SDS011;10223;50.862;4.360;2023-08-31T02:12:55;7.83;;;3.77;;
20124;SDS011;10223;50.862;4.360;2023-08-31T02:15:22;8.57;;;3.57;;
20124;SDS011;10223;50.862;4.360;2023-08-31T02:17:51;9.40;;;3.00;;
20124;SDS011;10223;50.862;4.360;2023-08-31T02:20:19;6.43;;;2.90;;
20124;SDS011;10223;50.862;4.360;2023-08-31T02:22:46;6.53;;;3.07;;
20124;SDS011;10223;50.862;4.360;2023-08-31T02:25:13;7.97;;;3.30;;
20124;SDS011;10223;50.862;4.360;2023-08-31T02:27:41;9.53;;;3.30;;
20124;SDS011;10223;50.862;4.360;2023-08-31T02:30:08;12.57;;;3.50;;
20124;SDS011;10223;50.862;4.360;2023-08-31T02:32:35;7.83;;;3.60;;
20124;SDS011;10223;50.862;4.360;2023-08-31T02:35:04;8.00;;;3.10;;
20124;SDS011;10223;50.862;4.360;2023-08-31T02:37:32;5.80;;;3.03;;
20124;SDS011;10223;50.862;4.360;2023-08-31T02:39:59;5.17;;;3.20;;
20124;SDS011;10223;50.862;4.360;2023-08-31T02:42:25;7.43;;;3.30;;
20124;SDS011;10223;50.862;4.360;2023-08-31T02:44:52;7.30;;;2.83;;
20124;SDS011;10223;50.862;4.360;2023-08-31T02:47:19;3.87;;;2.57;;
20124;SDS011;10223;50.862;4.360;2023-08-31T02:49:46;3.87;;;3.00;;
20124;SDS011;10223;50.862;4.360;2023-08-31T02:52:15;5.23;;;2.93;;
20124;SDS011;10223;50.862;4.360;2023-08-31T02:54:42;5.80;;;3.10;;
20124;SDS011;10223;50.862;4.360;2023-08-31T02:57:09;12.23;;;3.30;;
20124;SDS011;10223;50.862;4.360;2023-08-31T02:59:36;8.90;;;3.30;;
20124;SDS011;10223;50.862;4.360;2023-08-31T03:02:03;4.90;;;3.23;;
20124;SDS011;10223;50.862;4.360;2023-08-31T03:04:30;5.67;;;3.10;;
20124;SDS011;10223;50.862;4.360;2023-08-31T03:06:57;5.63;;;2.97;;
20124;SDS011;10223;50.862;4.360;2023-08-31T03:09:25;7.60;;;3.83;;
20124;SDS011;10223;50.862;4.360;2023-08-31T03:11:52;4.23;;;2.77;;
20124;SDS011;10223;50.862;4.360;2023-08-31T03:14:19;5.70;;;3.30;;
20124;SDS011;10223;50.862;4.360;2023-08-31T03:16:46;8.80;;;3.37;;
20124;SDS011;10223;50.862;4.360;2023-08-31T03:19:13;6.73;;;2.97;;
20124;SDS011;10223;50.862;4.360;2023-08-31T03:21:40;9.67;;;3.77;;
20124;SDS011;10223;50.862;4.360;2023-08-31T03:24:07;6.60;;;3.17;;
20124;SDS011;10223;50.862;4.360;2023-08-31T03:26:35;8.23;;;3.23;;
20124;SDS011;10223;50.862;4.360;2023-08-31T03:29:02;8.03;;;3.53;;
20124;SDS011;10223;50.862;4.360;2023-08-31T03:31:29;8.17;;;2.97;;
20124;SDS011;10223;50.862;4.360;2023-08-31T03:33:57;7.37;;;2.80;;
20124;SDS011;10223;50.862;4.360;2023-08-31T03:36:24;8.27;;;3.20;;
20124;SDS011;10223;50.862;4.360;2023-08-31T03:38:50;6.37;;;3.00;;
20124;SDS011;10223;50.862;4.360;2023-08-31T03:41:17;7.70;;;3.30;;
20124;SDS011;10223;50.862;4.360;2023-08-31T03:43:45;4.80;;;2.37;;
20124;SDS011;10223;50.862;4.360;2023-08-31T03:46:12;5.87;;;3.43;;
20124;SDS011;10223;50.862;4.360;2023-08-31T03:48:39;4.70;;;2.67;;
20124;SDS011;10223;50.862;4.360;2023-08-31T03:51:06;6.50;;;3.10;;
20124;SDS011;10223;50.862;4.360;2023-08-31T03:53:33;8.93;;;3.50;;
20124;SDS011;10223;50.862;4.360;2023-08-31T03:56:00;6.90;;;3.00;;
20124;SDS011;10223;50.862;4.360;2023-08-31T03:58:29;7.73;;;3.43;;
20124;SDS011;10223;50.862;4.360;2023-08-31T04:00:57;4.37;;;2.87;;
20124;SDS011;10223;50.862;4.360;2023-08-31T04:03:24;5.07;;;2.90;;
20124;SDS011;10223;50.862;4.360;2023-08-31T04:05:53;5.67;;;3.33;;
20124;SDS011;10223;50.862;4.360;2023-08-31T04:08:20;5.00;;;2.90;;
20124;SDS011;10223;50.862;4.360;2023-08-31T04:10:47;7.17;;;3.40;;
20124;SDS011;10223;50.862;4.360;2023-08-31T04:13:14;8.30;;;3.37;;
20124;SDS011;10223;50.862;4.360;2023-08-31T04:15:41;6.33;;;2.83;;
20124;SDS011;10223;50.862;4.360;2023-08-31T04:18:09;7.67;;;3.13;;
20124;SDS011;10223;50.862;4.360;2023-08-31T04:20:36;6.40;;;2.97;;
20124;SDS011;10223;50.862;4.360;2023-08-31T04:23:03;8.77;;;3.67;;
20124;SDS011;10223;50.862;4.360;2023-08-31T04:25:30;8.20;;;3.40;;
20124;SDS011;10223;50.862;4.360;2023-08-31T04:27:58;7.13;;;3.50;;
20124;SDS011;10223;50.862;4.360;2023-08-31T04:30:25;6.70;;;3.53;;
20124;SDS011;10223;50.862;4.360;2023-08-31T04:32:52;6.17;;;3.40;;
20124;SDS011;10223;50.862;4.360;2023-08-31T04:35:21;8.17;;;3.20;;
20124;SDS011;10223;50.862;4.360;2023-08-31T04:37:47;8.20;;;3.30;;
20124;SDS011;10223;50.862;4.360;2023-08-31T04:40:14;9.83;;;3.50;;
20124;SDS011;10223;50.862;4.360;2023-08-31T04:42:41;6.30;;;3.57;;
20124;SDS011;10223;50.862;4.360;2023-08-31T04:45:09;5.43;;;3.13;;
20124;SDS011;10223;50.862;4.360;2023-08-31T04:47:37;8.00;;;3.43;;
20124;SDS011;10223;50.862;4.360;2023-08-31T04:50:04;8.27;;;3.40;;
20124;SDS011;10223;50.862;4.360;2023-08-31T04:52:33;5.53;;;2.93;;
20124;SDS011;10223;50.862;4.360;2023-08-31T04:55:00;6.93;;;3.73;;
20124;SDS011;10223;50.862;4.360;2023-08-31T04:57:28;8.03;;;3.30;;
20124;SDS011;10223;50.862;4.360;2023-08-31T04:59:55;6.53;;;3.30;;
20124;SDS011;10223;50.862;4.360;2023-08-31T05:02:22;7.77;;;3.27;;
20124;SDS011;10223;50.862;4.360;2023-08-31T05:04:49;8.40;;;3.63;;
20124;SDS011;10223;50.862;4.360;2023-08-31T05:07:17;9.63;;;3.33;;
20124;SDS011;10223;50.862;4.360;2023-08-31T05:09:45;6.73;;;3.70;;
20124;SDS011;10223;50.862;4.360;2023-08-31T05:12:12;6.53;;;3.37;;
20124;SDS011;10223;50.862;4.360;2023-08-31T05:14:39;4.60;;;3.30;;
20124;SDS011;10223;50.862;4.360;2023-08-31T05:17:05;8.27;;;4.00;;
20124;SDS011;10223;50.862;4.360;2023-08-31T05:19:33;6.63;;;3.47;;
20124;SDS011;10223;50.862;4.360;2023-08-31T05:22:00;9.17;;;3.80;;
20124;SDS011;10223;50.862;4.360;2023-08-31T05:24:27;9.27;;;3.60;;
20124;SDS011;10223;50.862;4.360;2023-08-31T05:26:55;9.90;;;3.53;;
20124;SDS011;10223;50.862;4.360;2023-08-31T05:29:22;10.03;;;3.20;;
20124;SDS011;10223;50.862;4.360;2023-08-31T05:31:49;12.13;;;4.30;;
20124;SDS011;10223;50.862;4.360;2023-08-31T05:34:20;7.77;;;3.60;;
20124;SDS011;10223;50.862;4.360;2023-08-31T05:36:47;10.50;;;3.97;;
20124;SDS011;10223;50.862;4.360;2023-08-31T05:39:14;11.87;;;4.23;;
20124;SDS011;10223;50.862;4.360;2023-08-31T05:41:41;13.30;;;4.00;;
20124;SDS011;10223;50.862;4.360;2023-08-31T05:44:10;13.23;;;4.73;;
20124;SDS011;10223;50.862;4.360;2023-08-31T05:46:37;6.03;;;3.70;;
20124;SDS011;10223;50.862;4.360;2023-08-31T05:49:05;10.47;;;3.90;;
20124;SDS011;10223;50.862;4.360;2023-08-31T05:51:32;9.20;;;4.37;;
20124;SDS011;10223;50.862;4.360;2023-08-31T05:53:59;10.20;;;3.40;;
20124;SDS011;10223;50.862;4.360;2023-08-31T05:56:28;7.43;;;3.53;;
20124;SDS011;10223;50.862;4.360;2023-08-31T05:58:54;10.27;;;3.70;;
20124;SDS011;10223;50.862;4.360;2023-08-31T06:01:23;10.83;;;3.43;;
20124;SDS011;10223;50.862;4.360;2023-08-31T06:03:50;8.90;;;3.73;;
20124;SDS011;10223;50.862;4.360;2023-08-31T06:06:17;12.57;;;4.07;;
20124;SDS011;10223;50.862;4.360;2023-08-31T06:08:43;9.33;;;3.80;;
20124;SDS011;10223;50.862;4.360;2023-08-31T06:11:10;11.40;;;3.70;;
20124;SDS011;10223;50.862;4.360;2023-08-31T06:13:38;13.03;;;4.30;;
20124;SDS011;10223;50.862;4.360;2023-08-31T06:16:05;22.40;;;7.30;;
20124;SDS011;10223;50.862;4.360;2023-08-31T06:18:33;11.77;;;4.00;;
20124;SDS011;10223;50.862;4.360;2023-08-31T06:21:00;13.47;;;3.73;;
20124;SDS011;10223;50.862;4.360;2023-08-31T06:23:27;13.60;;;4.07;;
20124;SDS011;10223;50.862;4.360;2023-08-31T06:25:54;9.07;;;3.60;;
20124;SDS011;10223;50.862;4.360;2023-08-31T06:28:21;10.37;;;3.80;;
20124;SDS011;10223;50.862;4.360;2023-08-31T06:30:48;18.17;;;3.97;;
20124;SDS011;10223;50.862;4.360;2023-08-31T06:33:14;12.13;;;4.67;;
20124;SDS011;10223;50.862;4.360;2023-08-31T06:35:45;15.33;;;3.70;;
20124;SDS011;10223;50.862;4.360;2023-08-31T06:38:12;12.97;;;3.70;;
20124;SDS011;10223;50.862;4.360;2023-08-31T06:40:38;11.70;;;3.60;;
20124;SDS011;10223;50.862;4.360;2023-08-31T06:43:07;13.37;;;3.90;;
20124;SDS011;10223;50.862;4.360;2023-08-31T06:45:34;15.93;;;4.20;;
20124;SDS011;10223;50.862;4.360;2023-08-31T06:48:01;15.57;;;4.13;;
20124;SDS011;10223;50.862;4.360;2023-08-31T06:50:28;9.80;;;3.97;;
20124;SDS011;10223;50.862;4.360;2023-08-31T06:52:56;14.37;;;4.50;;
20124;SDS011;10223;50.862;4.360;2023-08-31T06:55:23;14.83;;;4.17;;
20124;SDS011;10223;50.862;4.360;2023-08-31T06:57:50;15.23;;;3.93;;
20124;SDS011;10223;50.862;4.360;2023-08-31T07:00:17;13.03;;;4.13;;
20124;SDS011;10223;50.862;4.360;2023-08-31T07:02:45;9.97;;;3.50;;
20124;SDS011;10223;50.862;4.360;2023-08-31T07:05:12;13.80;;;3.60;;
20124;SDS011;10223;50.862;4.360;2023-08-31T07:07:39;12.07;;;3.23;;
20124;SDS011;10223;50.862;4.360;2023-08-31T07:10:07;8.63;;;3.73;;
20124;SDS011;10223;50.862;4.360;2023-08-31T07:12:34;10.13;;;3.73;;
20124;SDS011;10223;50.862;4.360;2023-08-31T07:15:01;8.07;;;2.80;;
20124;SDS011;10223;50.862;4.360;2023-08-31T07:17:28;13.60;;;3.90;;
20124;SDS011;10223;50.862;4.360;2023-08-31T07:19:55;10.40;;;3.40;;
20124;SDS011;10223;50.862;4.360;2023-08-31T07:22:22;9.73;;;3.50;;
20124;SDS011;10223;50.862;4.360;2023-08-31T07:24:49;10.07;;;3.20;;
20124;SDS011;10223;50.862;4.360;2023-08-31T07:27:17;16.30;;;5.20;;
20124;SDS011;10223;50.862;4.360;2023-08-31T07:29:44;9.00;;;3.63;;
20124;SDS011;10223;50.862;4.360;2023-08-31T07:32:11;16.40;;;3.77;;
20124;SDS011;10223;50.862;4.360;2023-08-31T07:34:38;9.60;;;3.47;;
20124;SDS011;10223;50.862;4.360;2023-08-31T07:37:05;16.83;;;3.70;;
20124;SDS011;10223;50.862;4.360;2023-08-31T07:39:32;7.53;;;3.30;;
20124;SDS011;10223;50.862;4.360;2023-08-31T07:41:59;9.13;;;3.60;;
20124;SDS011;10223;50.862;4.360;2023-08-31T07:44:27;13.77;;;3.83;;
20124;SDS011;10223;50.862;4.360;2023-08-31T07:46:54;17.55;;;3.75;;
20124;SDS011;10223;50.862;4.360;2023-08-31T07:49:21;10.45;;;3.75;;
20124;SDS011;10223;50.862;4.360;2023-08-31T07:51:47;13.57;;;4.22;;
20124;SDS011;10223;50.862;4.360;2023-08-31T07:54:19;12.73;;;3.63;;
20124;SDS011;10223;50.862;4.360;2023-08-31T07:56:46;9.33;;;3.43;;
20124;SDS011;10223;50.862;4.360;2023-08-31T07:59:13;13.88;;;4.00;;
20124;SDS011;10223;50.862;4.360;2023-08-31T08:01:41;13.32;;;3.10;;
20124;SDS011;10223;50.862;4.360;2023-08-31T08:04:08;12.18;;;3.63;;
20124;SDS011;10223;50.862;4.360;2023-08-31T08:06:35;17.00;;;4.65;;
20124;SDS011;10223;50.862;4.360;2023-08-31T08:09:02;11.27;;;3.55;;
20124;SDS011;10223;50.862;4.360;2023-08-31T08:11:30;10.77;;;3.30;;
20124;SDS011;10223;50.862;4.360;2023-08-31T08:13:57;10.45;;;3.85;;
20124;SDS011;10223;50.862;4.360;2023-08-31T08:16:24;8.57;;;3.55;;
20124;SDS011;10223;50.862;4.360;2023-08-31T08:18:52;12.85;;;3.75;;
20124;SDS011;10223;50.862;4.360;2023-08-31T08:21:19;10.85;;;3.08;;
20124;SDS011;10223;50.862;4.360;2023-08-31T08:23:46;10.52;;;4.05;;
20124;SDS011;10223;50.862;4.360;2023-08-31T08:26:15;16.05;;;4.18;;
20124;SDS011;10223;50.862;4.360;2023-08-31T08:28:42;14.88;;;3.97;;
20124;SDS011;10223;50.862;4.360;2023-08-31T08:31:09;10.88;;;4.18;;
20124;SDS011;10223;50.862;4.360;2023-08-31T08:33:36;10.25;;;3.75;;
20124;SDS011;10223;50.862;4.360;2023-08-31T08:36:04;13.10;;;4.07;;
20124;SDS011;10223;50.862;4.360;2023-08-31T08:38:31;10.60;;;3.17;;
20124;SDS011;10223;50.862;4.360;2023-08-31T08:41:03;10.18;;;3.10;;
20124;SDS011;10223;50.862;4.360;2023-08-31T08:43:30;10.05;;;3.03;;
20124;SDS011;10223;50.862;4.360;2023-08-31T08:46:00;14.60;;;3.22;;
20124;SDS011;10223;50.862;4.360;2023-08-31T08:48:30;12.85;;;3.22;;
20124;SDS011;10223;50.862;4.360;2023-08-31T08:51:00;9.25;;;3.20;;
20124;SDS011;10223;50.862;4.360;2023-08-31T08:53:29;10.80;;;3.05;;
20124;SDS011;10223;50.862;4.360;2023-08-31T08:55:56;11.50;;;3.30;;
20124;SDS011;10223;50.862;4.360;2023-08-31T08:58:23;10.60;;;3.17;;
20124;SDS011;10223;50.862;4.360;2023-08-31T09:00:50;14.60;;;3.72;;
20124;SDS011;10223;50.862;4.360;2023-08-31T09:03:18;15.30;;;3.22;;
20124;SDS011;10223;50.862;4.360;2023-08-31T09:05:45;13.32;;;3.38;;
20124;SDS011;10223;50.862;4.360;2023-08-31T09:08:12;11.00;;;3.17;;
20124;SDS011;10223;50.862;4.360;2023-08-31T09:10:42;9.77;;;2.95;;
20124;SDS011;10223;50.862;4.360;2023-08-31T09:13:10;12.10;;;3.22;;
20124;SDS011;10223;50.862;4.360;2023-08-31T09:15:39;10.80;;;3.38;;
20124;SDS011;10223;50.862;4.360;2023-08-31T09:18:07;10.00;;;3.63;;
20124;SDS011;10223;50.862;4.360;2023-08-31T09:20:44;16.73;;;4.43;;
20124;SDS011;10223;50.862;4.360;2023-08-31T09:23:11;12.25;;;3.35;;
20124;SDS011;10223;50.862;4.360;2023-08-31T09:25:42;7.80;;;3.10;;
20124;SDS011;10223;50.862;4.360;2023-08-31T09:28:09;10.80;;;3.15;;
20124;SDS011;10223;50.862;4.360;2023-08-31T09:30:37;12.52;;;3.85;;
20124;SDS011;10223;50.862;4.360;2023-08-31T09:33:05;18.58;;;3.83;;
20124;SDS011;10223;50.862;4.360;2023-08-31T09:35:33;12.10;;;3.10;;
20124;SDS011;10223;50.862;4.360;2023-08-31T09:38:05;11.23;;;2.90;;
20124;SDS011;10223;50.862;4.360;2023-08-31T09:40:34;8.38;;;3.40;;
20124;SDS011;10223;50.862;4.360;2023-08-31T09:43:02;7.10;;;2.92;;
20124;SDS011;10223;50.862;4.360;2023-08-31T09:45:30;8.63;;;2.95;;
20124;SDS011;10223;50.862;4.360;2023-08-31T09:47:58;10.43;;;3.05;;
20124;SDS011;10223;50.862;4.360;2023-08-31T09:50:26;10.65;;;3.03;;
20124;SDS011;10223;50.862;4.360;2023-08-31T09:52:55;8.50;;;3.28;;
20124;SDS011;10223;50.862;4.360;2023-08-31T09:55:27;14.70;;;3.55;;
20124;SDS011;10223;50.862;4.360;2023-08-31T09:57:56;8.27;;;3.33;;
20124;SDS011;10223;50.862;4.360;2023-08-31T10:00:26;12.48;;;3.60;;
20124;SDS011;10223;50.862;4.360;2023-08-31T10:02:53;7.53;;;2.72;;
20124;SDS011;10223;50.862;4.360;2023-08-31T10:05:22;13.07;;;3.03;;
20124;SDS011;10223;50.862;4.360;2023-08-31T10:07:50;12.05;;;3.55;;
20124;SDS011;10223;50.862;4.360;2023-08-31T10:10:18;9.10;;;2.88;;
20124;SDS011;10223;50.862;4.360;2023-08-31T10:12:47;11.23;;;3.22;;
20124;SDS011;10223;50.862;4.360;2023-08-31T10:15:15;7.30;;;2.88;;
20124;SDS011;10223;50.862;4.360;2023-08-31T10:17:44;6.82;;;2.78;;
20124;SDS011;10223;50.862;4.360;2023-08-31T10:20:11;8.02;;;3.70;;
20124;SDS011;10223;50.862;4.360;2023-08-31T10:22:40;7.75;;;3.13;;
20124;SDS011;10223;50.862;4.360;2023-08-31T10:25:07;5.60;;;2.83;;
20124;SDS011;10223;50.862;4.360;2023-08-31T10:27:38;11.13;;;3.33;;
20124;SDS011;10223;50.862;4.360;2023-08-31T10:30:13;6.10;;;2.58;;
20124;SDS011;10223;50.862;4.360;2023-08-31T10:35:50;11.40;;;2.75;;
20124;SDS011;10223;50.862;4.360;2023-08-31T10:38:28;7.20;;;2.70;;
20124;SDS011;10223;50.862;4.360;2023-08-31T10:41:00;8.73;;;2.78;;
20124;SDS011;10223;50.862;4.360;2023-08-31T10:43:45;8.55;;;3.10;;
20124;SDS011;10223;50.862;4.360;2023-08-31T10:46:17;9.65;;;3.15;;
20124;SDS011;10223;50.862;4.360;2023-08-31T10:48:53;8.43;;;2.53;;
20124;SDS011;10223;50.862;4.360;2023-08-31T10:51:21;10.25;;;2.63;;
20124;SDS011;10223;50.862;4.360;2023-08-31T10:53:50;13.18;;;3.25;;
20124;SDS011;10223;50.862;4.360;2023-08-31T10:56:17;17.10;;;3.25;;
20124;SDS011;10223;50.862;4.360;2023-08-31T10:58:55;7.78;;;2.60;;
20124;SDS011;10223;50.862;4.360;2023-08-31T11:04:20;8.93;;;2.60;;
20124;SDS011;10223;50.862;4.360;2023-08-31T11:06:47;8.00;;;2.13;;
20124;SDS011;10223;50.862;4.360;2023-08-31T11:09:18;4.30;;;1.92;;
20124;SDS011;10223;50.862;4.360;2023-08-31T11:11:47;9.80;;;3.38;;
20124;SDS011;10223;50.862;4.360;2023-08-31T11:14:14;8.52;;;2.17;;
20124;SDS011;10223;50.862;4.360;2023-08-31T11:16:42;9.63;;;2.22;;
20124;SDS011;10223;50.862;4.360;2023-08-31T11:19:10;7.25;;;1.77;;
20124;SDS011;10223;50.862;4.360;2023-08-31T11:21:38;9.52;;;2.47;;
20124;SDS011;10223;50.862;4.360;2023-08-31T11:24:05;9.05;;;2.13;;
20124;SDS011;10223;50.862;4.360;2023-08-31T11:26:34;7.82;;;2.33;;
20124;SDS011;10223;50.862;4.360;2023-08-31T11:29:05;10.95;;;2.20;;
20124;SDS011;10223;50.862;4.360;2023-08-31T11:31:32;17.70;;;2.55;;
20124;SDS011;10223;50.862;4.360;2023-08-31T11:34:04;14.43;;;2.00;;
20124;SDS011;10223;50.862;4.360;2023-08-31T11:36:31;8.13;;;1.55;;
20124;SDS011;10223;50.862;4.360;2023-08-31T11:38:59;6.63;;;2.05;;
20124;SDS011;10223;50.862;4.360;2023-08-31T11:41:30;5.68;;;1.83;;
20124;SDS011;10223;50.862;4.360;2023-08-31T11:43:58;7.38;;;2.38;;
20124;SDS011;10223;50.862;4.360;2023-08-31T11:46:25;7.40;;;2.10;;
20124;SDS011;10223;50.862;4.360;2023-08-31T11:48:53;12.68;;;2.20;;
20124;SDS011;10223;50.862;4.360;2023-08-31T11:51:20;10.32;;;1.80;;
20124;SDS011;10223;50.862;4.360;2023-08-31T11:53:47;7.70;;;1.58;;
20124;SDS011;10223;50.862;4.360;2023-08-31T11:56:16;5.05;;;1.52;;
20124;SDS011;10223;50.862;4.360;2023-08-31T11:58:43;4.88;;;1.63;;
20124;SDS011;10223;50.862;4.360;2023-08-31T12:01:11;9.20;;;1.55;;
20124;SDS011;10223;50.862;4.360;2023-08-31T12:03:44;7.28;;;1.48;;
20124;SDS011;10223;50.862;4.360;2023-08-31T12:06:14;9.13;;;1.70;;
20124;SDS011;10223;50.862;4.360;2023-08-31T12:08:41;7.10;;;1.90;;
20124;SDS011;10223;50.862;4.360;2023-08-31T12:11:08;6.40;;;1.88;;
20124;SDS011;10223;50.862;4.360;2023-08-31T12:13:37;6.47;;;1.52;;
20124;SDS011;10223;50.862;4.360;2023-08-31T12:16:03;11.40;;;2.20;;
20124;SDS011;10223;50.862;4.360;2023-08-31T12:18:38;8.52;;;2.10;;
20124;SDS011;10223;50.862;4.360;2023-08-31T12:21:05;6.30;;;2.20;;
20124;SDS011;10223;50.862;4.360;2023-08-31T12:23:32;13.05;;;2.63;;
20124;SDS011;10223;50.862;4.360;2023-08-31T12:25:59;9.80;;;2.60;;
20124;SDS011;10223;50.862;4.360;2023-08-31T12:28:27;9.80;;;2.47;;
20124;SDS011;10223;50.862;4.360;2023-08-31T12:30:56;8.73;;;2.25;;
20124;SDS011;10223;50.862;4.360;2023-08-31T12:33:22;7.15;;;1.65;;
20124;SDS011;10223;50.862;4.360;2023-08-31T12:35:49;9.60;;;1.77;;
20124;SDS011;10223;50.862;4.360;2023-08-31T12:38:16;7.28;;;2.10;;
20124;SDS011;10223;50.862;4.360;2023-08-31T12:40:47;8.23;;;1.90;;
20124;SDS011;10223;50.862;4.360;2023-08-31T12:43:13;11.63;;;2.63;;
20124;SDS011;10223;50.862;4.360;2023-08-31T12:45:41;7.40;;;2.05;;
20124;SDS011;10223;50.862;4.360;2023-08-31T12:48:09;16.08;;;2.08;;
20124;SDS011;10223;50.862;4.360;2023-08-31T12:50:36;10.20;;;2.15;;
20124;SDS011;10223;50.862;4.360;2023-08-31T12:53:03;8.00;;;1.95;;
20124;SDS011;10223;50.862;4.360;2023-08-31T12:55:30;6.70;;;1.60;;
20124;SDS011;10223;50.862;4.360;2023-08-31T12:57:56;8.98;;;2.33;;
20124;SDS011;10223;50.862;4.360;2023-08-31T13:00:23;6.90;;;2.08;;
20124;SDS011;10223;50.862;4.360;2023-08-31T13:02:52;8.93;;;1.70;;
20124;SDS011;10223;50.862;4.360;2023-08-31T13:05:21;8.43;;;1.63;;
20124;SDS011;10223;50.862;4.360;2023-08-31T13:07:48;6.75;;;1.80;;
20124;SDS011;10223;50.862;4.360;2023-08-31T13:10:15;7.50;;;1.55;;
20124;SDS011;10223;50.862;4.360;2023-08-31T13:12:42;9.88;;;1.55;;
20124;SDS011;10223;50.862;4.360;2023-08-31T13:15:09;8.55;;;1.80;;
20124;SDS011;10223;50.862;4.360;2023-08-31T13:17:36;5.95;;;1.77;;
20124;SDS011;10223;50.862;4.360;2023-08-31T13:20:03;10.55;;;1.77;;
20124;SDS011;10223;50.862;4.360;2023-08-31T13:22:32;6.38;;;1.80;;
20124;SDS011;10223;50.862;4.360;2023-08-31T13:24:59;5.80;;;1.65;;
20124;SDS011;10223;50.862;4.360;2023-08-31T13:27:26;13.13;;;1.75;;
20124;SDS011;10223;50.862;4.360;2023-08-31T13:29:54;4.75;;;1.45;;
20124;SDS011;10223;50.862;4.360;2023-08-31T13:32:21;4.68;;;1.70;;
20124;SDS011;10223;50.862;4.360;2023-08-31T13:34:48;8.98;;;1.52;;
20124;SDS011;10223;50.862;4.360;2023-08-31T13:37:15;7.43;;;1.77;;
20124;SDS011;10223;50.862;4.360;2023-08-31T13:39:43;5.90;;;1.85;;
20124;SDS011;10223;50.862;4.360;2023-08-31T13:42:10;5.22;;;1.63;;
20124;SDS011;10223;50.862;4.360;2023-08-31T13:44:37;3.42;;;1.27;;
20124;SDS011;10223;50.862;4.360;2023-08-31T13:47:04;12.95;;;3.15;;
20124;SDS011;10223;50.862;4.360;2023-08-31T13:49:31;4.97;;;1.70;;
20124;SDS011;10223;50.862;4.360;2023-08-31T13:51:59;5.20;;;1.70;;
20124;SDS011;10223;50.862;4.360;2023-08-31T13:54:26;7.53;;;2.20;;
20124;SDS011;10223;50.862;4.360;2023-08-31T13:56:54;9.70;;;1.80;;
20124;SDS011;10223;50.862;4.360;2023-08-31T13:59:21;11.18;;;2.45;;
20124;SDS011;10223;50.862;4.360;2023-08-31T14:01:48;7.22;;;1.90;;
20124;SDS011;10223;50.862;4.360;2023-08-31T14:04:14;7.93;;;1.95;;
20124;SDS011;10223;50.862;4.360;2023-08-31T14:06:41;8.10;;;1.73;;
20124;SDS011;10223;50.862;4.360;2023-08-31T14:09:08;7.90;;;2.15;;
20124;SDS011;10223;50.862;4.360;2023-08-31T14:11:35;7.38;;;2.03;;
20124;SDS011;10223;50.862;4.360;2023-08-31T14:14:04;6.80;;;1.75;;
20124;SDS011;10223;50.862;4.360;2023-08-31T14:16:34;6.30;;;2.30;;
20124;SDS011;10223;50.862;4.360;2023-08-31T14:19:02;10.20;;;2.00;;
20124;SDS011;10223;50.862;4.360;2023-08-31T14:21:29;6.47;;;2.05;;
20124;SDS011;10223;50.862;4.360;2023-08-31T14:23:56;12.15;;;2.50;;
20124;SDS011;10223;50.862;4.360;2023-08-31T14:26:23;8.48;;;2.50;;
20124;SDS011;10223;50.862;4.360;2023-08-31T14:28:50;11.90;;;2.92;;
20124;SDS011;10223;50.862;4.360;2023-08-31T14:31:19;13.88;;;4.03;;
20124;SDS011;10223;50.862;4.360;2023-08-31T14:33:47;11.80;;;2.38;;
20124;SDS011;10223;50.862;4.360;2023-08-31T14:36:14;6.35;;;2.53;;
20124;SDS011;10223;50.862;4.360;2023-08-31T14:38:42;7.15;;;2.40;;
20124;SDS011;10223;50.862;4.360;2023-08-31T14:41:10;10.18;;;2.40;;
20124;SDS011;10223;50.862;4.360;2023-08-31T14:43:37;8.82;;;2.65;;
20124;SDS011;10223;50.862;4.360;2023-08-31T14:46:05;6.93;;;2.95;;
20124;SDS011;10223;50.862;4.360;2023-08-31T14:48:33;9.77;;;2.38;;
20124;SDS011;10223;50.862;4.360;2023-08-31T14:51:00;7.32;;;2.50;;
20124;SDS011;10223;50.862;4.360;2023-08-31T14:53:27;9.27;;;2.95;;